sensor_id;sensor_type;location;lat;lon;timestamp;temperature;humidity
2973;DHT22;1496;51.404;7.232;2023-08-20T00:00:30;20.30;1.00
2973;DHT22;1496;51.404;7.232;2023-08-20T00:03:00;20.30;1.00
2973;DHT22;1496;51.404;7.232;2023-08-20T00:05:29;20.30;1.00
2973;DHT22;1496;51.404;7.232;2023-08-20T00:07:54;20.30;1.00
2973;DHT22;1496;51.404;7.232;2023-08-20T00:10:20;20.30;1.00
2973;DHT22;1496;51.404;7.232;2023-08-20T00:12:46;20.30;1.00
2973;DHT22;1496;51.404;7.232;2023-08-20T00:15:11;20.30;1.00
2973;DHT22;1496;51.404;7.232;2023-08-20T00:17:39;20.30;1.00
2973;DHT22;1496;51.404;7.232;2023-08-20T00:20:07;20.30;1.00
2973;DHT22;1496;51.404;7.232;2023-08-20T00:22:36;20.30;1.00
2973;DHT22;1496;51.404;7.232;2023-08-20T00:25:02;20.30;1.00
2973;DHT22;1496;51.404;7.232;2023-08-20T00:27:29;20.30;1.00
2973;DHT22;1496;51.404;7.232;2023-08-20T00:29:55;20.30;1.00
2973;DHT22;1496;51.404;7.232;2023-08-20T00:32:21;20.30;1.00
2973;DHT22;1496;51.404;7.232;2023-08-20T00:34:47;20.30;1.00
2973;DHT22;1496;51.404;7.232;2023-08-20T00:37:16;20.30;1.00
2973;DHT22;1496;51.404;7.232;2023-08-20T00:39:42;20.30;1.00
2973;DHT22;1496;51.404;7.232;2023-08-20T00:42:07;20.30;1.00
2973;DHT22;1496;51.404;7.232;2023-08-20T00:44:34;20.30;1.00
2973;DHT22;1496;51.404;7.232;2023-08-20T00:47:04;20.30;99.90
2973;DHT22;1496;51.404;7.232;2023-08-20T00:49:31;20.30;99.90
2973;DHT22;1496;51.404;7.232;2023-08-20T00:52:00;20.30;1.00
2973;DHT22;1496;51.404;7.232;2023-08-20T00:54:28;20.20;99.90
2973;DHT22;1496;51.404;7.232;2023-08-20T00:56:54;20.20;99.90
2973;DHT22;1496;51.404;7.232;2023-08-20T00:59:20;20.10;99.90
2973;DHT22;1496;51.404;7.232;2023-08-20T01:01:46;20.00;99.90
2973;DHT22;1496;51.404;7.232;2023-08-20T01:04:12;19.90;99.90
2973;DHT22;1496;51.404;7.232;2023-08-20T01:07:03;19.80;99.90
2973;DHT22;1496;51.404;7.232;2023-08-20T01:12:26;19.60;99.90
2973;DHT22;1496;51.404;7.232;2023-08-20T01:14:52;19.40;99.90
2973;DHT22;1496;51.404;7.232;2023-08-20T01:17:18;19.40;99.90
2973;DHT22;1496;51.404;7.232;2023-08-20T01:19:44;19.40;99.90
2973;DHT22;1496;51.404;7.232;2023-08-20T01:22:27;19.40;99.90
2973;DHT22;1496;51.404;7.232;2023-08-20T01:25:17;19.40;99.90
2973;DHT22;1496;51.404;7.232;2023-08-20T01:30:35;19.30;1.00
2973;DHT22;1496;51.404;7.232;2023-08-20T01:33:01;19.30;1.00
2973;DHT22;1496;51.404;7.232;2023-08-20T01:35:28;19.40;64.40
2973;DHT22;1496;51.404;7.232;2023-08-20T01:38:01;19.30;99.90
2973;DHT22;1496;51.404;7.232;2023-08-20T01:40:29;19.30;99.90
2973;DHT22;1496;51.404;7.232;2023-08-20T01:42:55;19.30;1.00
2973;DHT22;1496;51.404;7.232;2023-08-20T01:45:20;19.40;1.00
2973;DHT22;1496;51.404;7.232;2023-08-20T01:47:47;19.40;1.00
2973;DHT22;1496;51.404;7.232;2023-08-20T01:50:14;19.40;92.80
2973;DHT22;1496;51.404;7.232;2023-08-20T01:52:39;19.40;99.90
2973;DHT22;1496;51.404;7.232;2023-08-20T01:55:05;19.50;1.00
2973;DHT22;1496;51.404;7.232;2023-08-20T01:57:32;19.50;1.00
2973;DHT22;1496;51.404;7.232;2023-08-20T01:59:59;19.50;99.90
2973;DHT22;1496;51.404;7.232;2023-08-20T02:02:25;19.50;1.00
2973;DHT22;1496;51.404;7.232;2023-08-20T02:04:50;19.60;99.90
2973;DHT22;1496;51.404;7.232;2023-08-20T02:07:16;19.60;1.00
2973;DHT22;1496;51.404;7.232;2023-08-20T02:09:42;19.60;59.10
2973;DHT22;1496;51.404;7.232;2023-08-20T02:12:08;19.50;1.00
2973;DHT22;1496;51.404;7.232;2023-08-20T02:14:34;19.50;99.90
2973;DHT22;1496;51.404;7.232;2023-08-20T02:17:03;19.40;99.90
2973;DHT22;1496;51.404;7.232;2023-08-20T02:19:30;19.40;99.90
2973;DHT22;1496;51.404;7.232;2023-08-20T02:21:55;19.40;1.00
2973;DHT22;1496;51.404;7.232;2023-08-20T02:24:21;19.50;99.90
2973;DHT22;1496;51.404;7.232;2023-08-20T02:26:47;19.50;99.90
2973;DHT22;1496;51.404;7.232;2023-08-20T02:29:16;19.50;41.70
2973;DHT22;1496;51.404;7.232;2023-08-20T02:31:41;19.50;1.00
2973;DHT22;1496;51.404;7.232;2023-08-20T02:34:08;19.50;1.00
2973;DHT22;1496;51.404;7.232;2023-08-20T02:36:33;19.50;1.00
2973;DHT22;1496;51.404;7.232;2023-08-20T02:38:59;19.50;99.90
2973;DHT22;1496;51.404;7.232;2023-08-20T02:41:24;19.50;82.20
2973;DHT22;1496;51.404;7.232;2023-08-20T02:43:50;19.50;99.90
2973;DHT22;1496;51.404;7.232;2023-08-20T02:46:16;19.60;13.20
2973;DHT22;1496;51.404;7.232;2023-08-20T02:48:41;19.60;1.00
2973;DHT22;1496;51.404;7.232;2023-08-20T02:51:07;19.60;61.30
2973;DHT22;1496;51.404;7.232;2023-08-20T02:53:33;19.60;99.90
2973;DHT22;1496;51.404;7.232;2023-08-20T02:55:58;19.60;1.00
2973;DHT22;1496;51.404;7.232;2023-08-20T02:58:24;19.60;6.20
2973;DHT22;1496;51.404;7.232;2023-08-20T03:00:50;19.60;4.60
2973;DHT22;1496;51.404;7.232;2023-08-20T03:03:16;19.60;1.00
2973;DHT22;1496;51.404;7.232;2023-08-20T03:05:43;19.60;1.00
2973;DHT22;1496;51.404;7.232;2023-08-20T03:08:08;19.60;1.00
2973;DHT22;1496;51.404;7.232;2023-08-20T03:10:35;19.60;1.00
2973;DHT22;1496;51.404;7.232;2023-08-20T03:13:01;19.60;99.90
2973;DHT22;1496;51.404;7.232;2023-08-20T03:15:30;19.60;99.90
2973;DHT22;1496;51.404;7.232;2023-08-20T03:17:56;19.60;99.90
2973;DHT22;1496;51.404;7.232;2023-08-20T03:20:22;19.50;99.90
2973;DHT22;1496;51.404;7.232;2023-08-20T03:22:48;19.50;99.90
2973;DHT22;1496;51.404;7.232;2023-08-20T03:25:13;19.50;99.90
2973;DHT22;1496;51.404;7.232;2023-08-20T03:27:39;19.50;1.00
2973;DHT22;1496;51.404;7.232;2023-08-20T03:30:05;19.50;1.00
2973;DHT22;1496;51.404;7.232;2023-08-20T03:32:32;19.50;1.00
2973;DHT22;1496;51.404;7.232;2023-08-20T03:34:57;19.50;1.00
2973;DHT22;1496;51.404;7.232;2023-08-20T03:37:25;19.50;99.90
2973;DHT22;1496;51.404;7.232;2023-08-20T03:39:51;19.40;1.00
2973;DHT22;1496;51.404;7.232;2023-08-20T03:42:17;19.40;1.00
2973;DHT22;1496;51.404;7.232;2023-08-20T03:44:43;19.50;99.90
2973;DHT22;1496;51.404;7.232;2023-08-20T03:47:09;19.40;99.90
2973;DHT22;1496;51.404;7.232;2023-08-20T03:49:34;19.40;99.90
2973;DHT22;1496;51.404;7.232;2023-08-20T03:52:00;19.40;1.00
2973;DHT22;1496;51.404;7.232;2023-08-20T03:54:28;19.40;1.00
2973;DHT22;1496;51.404;7.232;2023-08-20T03:56:56;19.40;1.00
2973;DHT22;1496;51.404;7.232;2023-08-20T03:59:22;19.40;99.90
2973;DHT22;1496;51.404;7.232;2023-08-20T04:01:48;19.50;1.00
2973;DHT22;1496;51.404;7.232;2023-08-20T04:04:14;19.50;55.60
2973;DHT22;1496;51.404;7.232;2023-08-20T04:06:41;19.40;21.40
2973;DHT22;1496;51.404;7.232;2023-08-20T04:09:07;19.40;1.00
2973;DHT22;1496;51.404;7.232;2023-08-20T04:11:34;19.50;1.00
2973;DHT22;1496;51.404;7.232;2023-08-20T04:14:00;19.40;1.00
2973;DHT22;1496;51.404;7.232;2023-08-20T04:16:26;19.40;1.00
2973;DHT22;1496;51.404;7.232;2023-08-20T04:18:54;19.40;1.00
2973;DHT22;1496;51.404;7.232;2023-08-20T04:21:20;19.40;1.00
2973;DHT22;1496;51.404;7.232;2023-08-20T04:23:46;19.30;1.00
2973;DHT22;1496;51.404;7.232;2023-08-20T04:26:11;19.30;1.00
2973;DHT22;1496;51.404;7.232;2023-08-20T04:28:38;19.30;1.00
2973;DHT22;1496;51.404;7.232;2023-08-20T04:31:04;19.30;1.00
2973;DHT22;1496;51.404;7.232;2023-08-20T04:33:45;19.20;1.00
2973;DHT22;1496;51.404;7.232;2023-08-20T04:36:12;19.20;99.90
2973;DHT22;1496;51.404;7.232;2023-08-20T04:38:37;19.20;1.00
2973;DHT22;1496;51.404;7.232;2023-08-20T04:41:03;19.20;99.90
2973;DHT22;1496;51.404;7.232;2023-08-20T04:43:30;19.20;1.00
2973;DHT22;1496;51.404;7.232;2023-08-20T04:45:57;19.30;21.10
2973;DHT22;1496;51.404;7.232;2023-08-20T04:48:23;19.30;50.60
2973;DHT22;1496;51.404;7.232;2023-08-20T04:50:49;19.30;99.90
2973;DHT22;1496;51.404;7.232;2023-08-20T04:53:14;19.30;1.00
2973;DHT22;1496;51.404;7.232;2023-08-20T04:55:42;19.30;1.00
2973;DHT22;1496;51.404;7.232;2023-08-20T04:58:08;19.30;99.90
2973;DHT22;1496;51.404;7.232;2023-08-20T05:00:35;19.30;17.80
2973;DHT22;1496;51.404;7.232;2023-08-20T05:03:06;19.40;99.90
2973;DHT22;1496;51.404;7.232;2023-08-20T05:05:33;19.40;99.90
2973;DHT22;1496;51.404;7.232;2023-08-20T05:07:58;19.40;99.90
2973;DHT22;1496;51.404;7.232;2023-08-20T05:10:24;19.50;1.00
2973;DHT22;1496;51.404;7.232;2023-08-20T05:12:49;19.50;99.90
2973;DHT22;1496;51.404;7.232;2023-08-20T05:15:16;19.50;1.00
2973;DHT22;1496;51.404;7.232;2023-08-20T05:17:41;19.50;1.00
2973;DHT22;1496;51.404;7.232;2023-08-20T05:20:07;19.40;99.90
2973;DHT22;1496;51.404;7.232;2023-08-20T05:22:34;19.40;99.90
2973;DHT22;1496;51.404;7.232;2023-08-20T05:24:59;19.30;99.90
2973;DHT22;1496;51.404;7.232;2023-08-20T05:27:26;19.30;99.90
2973;DHT22;1496;51.404;7.232;2023-08-20T05:29:52;19.40;99.90
2973;DHT22;1496;51.404;7.232;2023-08-20T05:32:19;19.50;99.90
2973;DHT22;1496;51.404;7.232;2023-08-20T05:34:46;19.50;99.90
2973;DHT22;1496;51.404;7.232;2023-08-20T05:37:11;19.50;1.00
2973;DHT22;1496;51.404;7.232;2023-08-20T05:39:42;19.50;1.00
2973;DHT22;1496;51.404;7.232;2023-08-20T05:42:08;19.50;1.00
2973;DHT22;1496;51.404;7.232;2023-08-20T05:44:34;19.50;20.20
2973;DHT22;1496;51.404;7.232;2023-08-20T05:47:01;19.50;99.90
2973;DHT22;1496;51.404;7.232;2023-08-20T05:49:27;19.50;99.90
2973;DHT22;1496;51.404;7.232;2023-08-20T05:51:53;19.50;99.90
2973;DHT22;1496;51.404;7.232;2023-08-20T05:54:19;19.60;1.00
2973;DHT22;1496;51.404;7.232;2023-08-20T05:56:45;19.60;1.00
2973;DHT22;1496;51.404;7.232;2023-08-20T05:59:10;19.60;1.00
2973;DHT22;1496;51.404;7.232;2023-08-20T06:01:36;19.60;1.00
2973;DHT22;1496;51.404;7.232;2023-08-20T06:04:02;19.60;99.90
2973;DHT22;1496;51.404;7.232;2023-08-20T06:06:28;19.70;1.00
2973;DHT22;1496;51.404;7.232;2023-08-20T06:08:53;19.60;1.00
2973;DHT22;1496;51.404;7.232;2023-08-20T06:11:20;19.60;1.00
2973;DHT22;1496;51.404;7.232;2023-08-20T06:13:45;19.70;99.90
2973;DHT22;1496;51.404;7.232;2023-08-20T06:16:15;19.80;1.00
2973;DHT22;1496;51.404;7.232;2023-08-20T06:18:41;19.90;99.90
2973;DHT22;1496;51.404;7.232;2023-08-20T06:21:06;20.00;1.00
2973;DHT22;1496;51.404;7.232;2023-08-20T06:23:32;20.00;99.90
2973;DHT22;1496;51.404;7.232;2023-08-20T06:25:58;20.20;99.90
2973;DHT22;1496;51.404;7.232;2023-08-20T06:28:23;20.30;1.00
2973;DHT22;1496;51.404;7.232;2023-08-20T06:30:49;20.40;99.90
2973;DHT22;1496;51.404;7.232;2023-08-20T06:33:15;20.30;1.00
2973;DHT22;1496;51.404;7.232;2023-08-20T06:35:40;20.30;1.00
2973;DHT22;1496;51.404;7.232;2023-08-20T06:38:07;20.40;1.00
2973;DHT22;1496;51.404;7.232;2023-08-20T06:40:33;20.50;1.00
2973;DHT22;1496;51.404;7.232;2023-08-20T06:42:58;20.50;1.00
2973;DHT22;1496;51.404;7.232;2023-08-20T06:45:24;20.60;1.00
2973;DHT22;1496;51.404;7.232;2023-08-20T06:47:50;20.70;1.00
2973;DHT22;1496;51.404;7.232;2023-08-20T06:50:18;20.70;1.00
2973;DHT22;1496;51.404;7.232;2023-08-20T06:52:44;20.80;99.90
2973;DHT22;1496;51.404;7.232;2023-08-20T06:55:09;20.90;99.90
2973;DHT22;1496;51.404;7.232;2023-08-20T06:57:35;21.00;99.90
2973;DHT22;1496;51.404;7.232;2023-08-20T07:00:01;21.00;99.90
2973;DHT22;1496;51.404;7.232;2023-08-20T07:02:26;21.20;99.90
2973;DHT22;1496;51.404;7.232;2023-08-20T07:04:52;21.20;99.90
2973;DHT22;1496;51.404;7.232;2023-08-20T07:07:18;21.30;99.90
2973;DHT22;1496;51.404;7.232;2023-08-20T07:09:43;21.30;99.90
2973;DHT22;1496;51.404;7.232;2023-08-20T07:12:09;21.50;99.90
2973;DHT22;1496;51.404;7.232;2023-08-20T07:14:34;21.50;99.90
2973;DHT22;1496;51.404;7.232;2023-08-20T07:17:00;21.60;99.90
2973;DHT22;1496;51.404;7.232;2023-08-20T07:19:28;21.60;99.90
2973;DHT22;1496;51.404;7.232;2023-08-20T07:21:54;21.60;99.90
2973;DHT22;1496;51.404;7.232;2023-08-20T07:24:21;21.70;99.90
2973;DHT22;1496;51.404;7.232;2023-08-20T07:26:51;21.80;99.90
2973;DHT22;1496;51.404;7.232;2023-08-20T07:29:17;21.80;99.90
2973;DHT22;1496;51.404;7.232;2023-08-20T07:31:43;21.80;99.90
2973;DHT22;1496;51.404;7.232;2023-08-20T07:34:09;21.90;99.90
2973;DHT22;1496;51.404;7.232;2023-08-20T07:36:34;22.00;99.90
2973;DHT22;1496;51.404;7.232;2023-08-20T07:39:00;22.20;99.90
2973;DHT22;1496;51.404;7.232;2023-08-20T07:41:26;22.30;99.90
2973;DHT22;1496;51.404;7.232;2023-08-20T07:43:52;22.50;99.90
2973;DHT22;1496;51.404;7.232;2023-08-20T07:46:19;22.60;99.90
2973;DHT22;1496;51.404;7.232;2023-08-20T07:48:44;22.70;99.90
2973;DHT22;1496;51.404;7.232;2023-08-20T07:51:10;22.80;99.90
2973;DHT22;1496;51.404;7.232;2023-08-20T07:53:36;22.90;99.90
2973;DHT22;1496;51.404;7.232;2023-08-20T07:56:02;22.80;99.90
2973;DHT22;1496;51.404;7.232;2023-08-20T07:58:27;23.00;99.90
2973;DHT22;1496;51.404;7.232;2023-08-20T08:00:54;23.20;99.90
2973;DHT22;1496;51.404;7.232;2023-08-20T08:03:19;23.20;99.90
2973;DHT22;1496;51.404;7.232;2023-08-20T08:05:48;23.30;99.90
2973;DHT22;1496;51.404;7.232;2023-08-20T08:08:18;23.30;99.90
2973;DHT22;1496;51.404;7.232;2023-08-20T08:10:45;23.30;99.90
2973;DHT22;1496;51.404;7.232;2023-08-20T08:13:11;23.40;99.90
2973;DHT22;1496;51.404;7.232;2023-08-20T08:15:37;23.50;99.90
2973;DHT22;1496;51.404;7.232;2023-08-20T08:18:04;23.60;99.90
2973;DHT22;1496;51.404;7.232;2023-08-20T08:20:30;23.50;98.40
2973;DHT22;1496;51.404;7.232;2023-08-20T08:22:56;23.60;99.90
2973;DHT22;1496;51.404;7.232;2023-08-20T08:25:22;23.70;97.20
2973;DHT22;1496;51.404;7.232;2023-08-20T08:27:47;23.70;77.40
2973;DHT22;1496;51.404;7.232;2023-08-20T08:30:13;23.80;71.40
2973;DHT22;1496;51.404;7.232;2023-08-20T08:32:40;24.00;58.30
2973;DHT22;1496;51.404;7.232;2023-08-20T08:35:06;23.90;31.70
2973;DHT22;1496;51.404;7.232;2023-08-20T08:37:32;24.00;40.80
2973;DHT22;1496;51.404;7.232;2023-08-20T08:39:58;23.90;49.30
2973;DHT22;1496;51.404;7.232;2023-08-20T08:42:24;23.90;26.00
2973;DHT22;1496;51.404;7.232;2023-08-20T08:44:50;23.90;21.10
2973;DHT22;1496;51.404;7.232;2023-08-20T08:47:16;23.80;14.30
2973;DHT22;1496;51.404;7.232;2023-08-20T08:49:42;23.70;21.10
2973;DHT22;1496;51.404;7.232;2023-08-20T08:52:10;23.70;21.00
2973;DHT22;1496;51.404;7.232;2023-08-20T08:54:36;23.60;15.60
2973;DHT22;1496;51.404;7.232;2023-08-20T08:57:02;23.50;20.40
2973;DHT22;1496;51.404;7.232;2023-08-20T08:59:28;23.40;21.80
2973;DHT22;1496;51.404;7.232;2023-08-20T09:01:54;23.40;24.80
2973;DHT22;1496;51.404;7.232;2023-08-20T09:04:22;23.30;24.20
2973;DHT22;1496;51.404;7.232;2023-08-20T09:09:16;23.40;16.20
2973;DHT22;1496;51.404;7.232;2023-08-20T09:11:42;23.30;17.00
2973;DHT22;1496;51.404;7.232;2023-08-20T09:14:29;23.40;18.20
2973;DHT22;1496;51.404;7.232;2023-08-20T09:17:00;23.60;10.60
2973;DHT22;1496;51.404;7.232;2023-08-20T09:19:30;23.90;11.20
2973;DHT22;1496;51.404;7.232;2023-08-20T09:21:58;24.20;8.60
2973;DHT22;1496;51.404;7.232;2023-08-20T09:24:57;24.40;1.70
2973;DHT22;1496;51.404;7.232;2023-08-20T09:27:23;24.60;1.00
2973;DHT22;1496;51.404;7.232;2023-08-20T09:29:54;24.80;1.00
2973;DHT22;1496;51.404;7.232;2023-08-20T09:32:21;24.90;1.00
2973;DHT22;1496;51.404;7.232;2023-08-20T09:34:51;25.10;1.00
2973;DHT22;1496;51.404;7.232;2023-08-20T09:37:19;25.20;1.00
2973;DHT22;1496;51.404;7.232;2023-08-20T09:39:44;25.30;1.00
2973;DHT22;1496;51.404;7.232;2023-08-20T09:42:11;25.30;1.00
2973;DHT22;1496;51.404;7.232;2023-08-20T09:44:39;25.10;1.00
2973;DHT22;1496;51.404;7.232;2023-08-20T09:47:09;25.10;1.00
2973;DHT22;1496;51.404;7.232;2023-08-20T09:49:43;24.90;1.00
2973;DHT22;1496;51.404;7.232;2023-08-20T09:52:11;24.70;1.00
2973;DHT22;1496;51.404;7.232;2023-08-20T09:57:26;24.50;1.00
2973;DHT22;1496;51.404;7.232;2023-08-20T09:59:55;24.40;1.00
2973;DHT22;1496;51.404;7.232;2023-08-20T10:02:21;24.30;1.00
2973;DHT22;1496;51.404;7.232;2023-08-20T10:04:47;24.20;1.00
2973;DHT22;1496;51.404;7.232;2023-08-20T10:07:14;24.10;1.00
2973;DHT22;1496;51.404;7.232;2023-08-20T10:09:40;24.20;1.00
2973;DHT22;1496;51.404;7.232;2023-08-20T10:12:07;24.50;1.00
2973;DHT22;1496;51.404;7.232;2023-08-20T10:14:33;24.80;1.00
2973;DHT22;1496;51.404;7.232;2023-08-20T10:17:05;25.00;1.00
2973;DHT22;1496;51.404;7.232;2023-08-20T10:19:31;25.20;1.00
2973;DHT22;1496;51.404;7.232;2023-08-20T10:21:56;25.40;1.00
2973;DHT22;1496;51.404;7.232;2023-08-20T10:24:23;25.60;1.00
2973;DHT22;1496;51.404;7.232;2023-08-20T10:27:07;25.70;1.00
2973;DHT22;1496;51.404;7.232;2023-08-20T10:29:41;25.70;1.00
2973;DHT22;1496;51.404;7.232;2023-08-20T10:32:11;25.70;1.00
2973;DHT22;1496;51.404;7.232;2023-08-20T10:34:39;25.40;1.00
2973;DHT22;1496;51.404;7.232;2023-08-20T10:37:14;25.50;1.00
2973;DHT22;1496;51.404;7.232;2023-08-20T10:39:40;25.50;1.00
2973;DHT22;1496;51.404;7.232;2023-08-20T10:50:05;25.30;1.00
2973;DHT22;1496;51.404;7.232;2023-08-20T10:52:32;25.50;1.00
2973;DHT22;1496;51.404;7.232;2023-08-20T10:54:58;25.70;1.00
2973;DHT22;1496;51.404;7.232;2023-08-20T10:57:33;25.90;1.00
2973;DHT22;1496;51.404;7.232;2023-08-20T10:59:58;26.00;1.00
2973;DHT22;1496;51.404;7.232;2023-08-20T11:02:28;25.90;1.00
2973;DHT22;1496;51.404;7.232;2023-08-20T11:04:56;25.90;1.00
2973;DHT22;1496;51.404;7.232;2023-08-20T11:07:24;25.90;1.00
2973;DHT22;1496;51.404;7.232;2023-08-20T11:09:52;25.70;1.00
2973;DHT22;1496;51.404;7.232;2023-08-20T11:12:20;25.70;1.00
2973;DHT22;1496;51.404;7.232;2023-08-20T11:14:46;25.70;1.00
2973;DHT22;1496;51.404;7.232;2023-08-20T11:17:13;25.60;1.00
2973;DHT22;1496;51.404;7.232;2023-08-20T11:19:39;25.50;1.00
2973;DHT22;1496;51.404;7.232;2023-08-20T11:22:05;25.50;1.00
2973;DHT22;1496;51.404;7.232;2023-08-20T11:24:31;25.50;1.00
2973;DHT22;1496;51.404;7.232;2023-08-20T11:26:56;25.40;1.00
2973;DHT22;1496;51.404;7.232;2023-08-20T11:29:24;25.60;1.00
2973;DHT22;1496;51.404;7.232;2023-08-20T11:31:50;25.90;1.00
2973;DHT22;1496;51.404;7.232;2023-08-20T11:34:18;26.10;1.00
2973;DHT22;1496;51.404;7.232;2023-08-20T11:36:44;26.20;1.00
2973;DHT22;1496;51.404;7.232;2023-08-20T11:39:09;26.30;1.00
2973;DHT22;1496;51.404;7.232;2023-08-20T11:41:37;26.10;1.00
2973;DHT22;1496;51.404;7.232;2023-08-20T11:44:03;26.20;1.00
2973;DHT22;1496;51.404;7.232;2023-08-20T11:46:29;26.30;1.00
2973;DHT22;1496;51.404;7.232;2023-08-20T11:49:08;26.20;1.00
2973;DHT22;1496;51.404;7.232;2023-08-20T11:54:07;25.60;1.00
2973;DHT22;1496;51.404;7.232;2023-08-20T11:56:34;25.90;1.00
2973;DHT22;1496;51.404;7.232;2023-08-20T11:59:01;25.90;1.00
2973;DHT22;1496;51.404;7.232;2023-08-20T12:01:33;25.80;1.00
2973;DHT22;1496;51.404;7.232;2023-08-20T12:04:08;25.90;1.00
2973;DHT22;1496;51.404;7.232;2023-08-20T12:06:35;26.00;1.00
2973;DHT22;1496;51.404;7.232;2023-08-20T12:09:12;26.00;1.00
2973;DHT22;1496;51.404;7.232;2023-08-20T12:11:51;26.20;1.00
2973;DHT22;1496;51.404;7.232;2023-08-20T12:14:18;26.40;1.00
2973;DHT22;1496;51.404;7.232;2023-08-20T12:16:44;26.20;1.00
2973;DHT22;1496;51.404;7.232;2023-08-20T12:19:10;26.20;1.00
2973;DHT22;1496;51.404;7.232;2023-08-20T12:21:35;26.30;1.00
2973;DHT22;1496;51.404;7.232;2023-08-20T12:24:01;26.40;1.00
2973;DHT22;1496;51.404;7.232;2023-08-20T12:26:26;26.60;1.00
2973;DHT22;1496;51.404;7.232;2023-08-20T12:28:52;26.70;1.00
2973;DHT22;1496;51.404;7.232;2023-08-20T12:31:18;26.70;1.00
2973;DHT22;1496;51.404;7.232;2023-08-20T12:33:43;26.70;1.00
2973;DHT22;1496;51.404;7.232;2023-08-20T12:36:09;26.70;1.00
2973;DHT22;1496;51.404;7.232;2023-08-20T12:38:34;26.70;1.00
2973;DHT22;1496;51.404;7.232;2023-08-20T12:41:01;26.50;1.00
2973;DHT22;1496;51.404;7.232;2023-08-20T12:43:27;26.40;1.00
2973;DHT22;1496;51.404;7.232;2023-08-20T12:45:52;26.40;1.00
2973;DHT22;1496;51.404;7.232;2023-08-20T12:48:18;26.50;1.00
2973;DHT22;1496;51.404;7.232;2023-08-20T12:50:44;26.60;1.00
2973;DHT22;1496;51.404;7.232;2023-08-20T12:53:09;26.90;1.00
2973;DHT22;1496;51.404;7.232;2023-08-20T12:55:35;26.90;1.00
2973;DHT22;1496;51.404;7.232;2023-08-20T12:58:00;26.90;1.00
2973;DHT22;1496;51.404;7.232;2023-08-20T13:00:27;26.90;1.00
2973;DHT22;1496;51.404;7.232;2023-08-20T13:02:56;26.90;1.00
2973;DHT22;1496;51.404;7.232;2023-08-20T13:05:28;26.80;1.00
2973;DHT22;1496;51.404;7.232;2023-08-20T13:07:54;26.80;1.00
2973;DHT22;1496;51.404;7.232;2023-08-20T13:10:20;26.50;1.00
2973;DHT22;1496;51.404;7.232;2023-08-20T13:12:51;26.40;1.00
2973;DHT22;1496;51.404;7.232;2023-08-20T13:15:18;26.50;1.00
2973;DHT22;1496;51.404;7.232;2023-08-20T13:17:45;26.60;1.00
2973;DHT22;1496;51.404;7.232;2023-08-20T13:20:11;26.80;1.00
2973;DHT22;1496;51.404;7.232;2023-08-20T13:22:37;26.90;1.00
2973;DHT22;1496;51.404;7.232;2023-08-20T13:25:03;27.00;1.00
2973;DHT22;1496;51.404;7.232;2023-08-20T13:27:30;27.00;1.00
2973;DHT22;1496;51.404;7.232;2023-08-20T13:29:56;27.00;1.00
2973;DHT22;1496;51.404;7.232;2023-08-20T13:32:22;26.90;1.00
2973;DHT22;1496;51.404;7.232;2023-08-20T13:34:49;26.90;1.00
2973;DHT22;1496;51.404;7.232;2023-08-20T13:37:15;27.00;1.00
2973;DHT22;1496;51.404;7.232;2023-08-20T13:39:40;27.00;1.00
2973;DHT22;1496;51.404;7.232;2023-08-20T13:42:06;26.90;1.00
2973;DHT22;1496;51.404;7.232;2023-08-20T13:44:31;27.00;1.00
2973;DHT22;1496;51.404;7.232;2023-08-20T13:47:00;27.00;1.00
2973;DHT22;1496;51.404;7.232;2023-08-20T13:49:26;27.00;1.00
2973;DHT22;1496;51.404;7.232;2023-08-20T13:51:52;26.90;1.00
2973;DHT22;1496;51.404;7.232;2023-08-20T13:54:17;26.60;1.00
2973;DHT22;1496;51.404;7.232;2023-08-20T13:56:43;26.70;1.00
2973;DHT22;1496;51.404;7.232;2023-08-20T13:59:10;26.70;1.00
2973;DHT22;1496;51.404;7.232;2023-08-20T14:01:35;26.80;1.00
2973;DHT22;1496;51.404;7.232;2023-08-20T14:04:01;26.90;1.00
2973;DHT22;1496;51.404;7.232;2023-08-20T14:06:28;26.90;1.00
2973;DHT22;1496;51.404;7.232;2023-08-20T14:08:54;26.70;1.00
2973;DHT22;1496;51.404;7.232;2023-08-20T14:11:19;26.70;1.00
2973;DHT22;1496;51.404;7.232;2023-08-20T14:13:46;26.70;1.00
2973;DHT22;1496;51.404;7.232;2023-08-20T14:16:15;26.70;1.00
2973;DHT22;1496;51.404;7.232;2023-08-20T14:18:40;26.70;1.00
2973;DHT22;1496;51.404;7.232;2023-08-20T14:21:06;26.70;1.00
2973;DHT22;1496;51.404;7.232;2023-08-20T14:23:32;26.80;1.00
2973;DHT22;1496;51.404;7.232;2023-08-20T14:25:58;26.90;1.00
2973;DHT22;1496;51.404;7.232;2023-08-20T14:28:23;26.90;1.00
2973;DHT22;1496;51.404;7.232;2023-08-20T14:30:52;26.90;1.00
2973;DHT22;1496;51.404;7.232;2023-08-20T14:33:20;26.90;1.00
2973;DHT22;1496;51.404;7.232;2023-08-20T14:35:46;26.80;1.00
2973;DHT22;1496;51.404;7.232;2023-08-20T14:38:12;26.80;1.00
2973;DHT22;1496;51.404;7.232;2023-08-20T14:40:39;26.50;1.00
2973;DHT22;1496;51.404;7.232;2023-08-20T14:43:08;26.40;1.00
2973;DHT22;1496;51.404;7.232;2023-08-20T14:45:34;26.40;1.00
2973;DHT22;1496;51.404;7.232;2023-08-20T14:48:00;26.50;1.00
2973;DHT22;1496;51.404;7.232;2023-08-20T14:50:25;26.40;1.00
2973;DHT22;1496;51.404;7.232;2023-08-20T14:52:51;26.50;1.00
2973;DHT22;1496;51.404;7.232;2023-08-20T14:55:19;26.40;1.00
2973;DHT22;1496;51.404;7.232;2023-08-20T14:57:45;26.40;1.00
2973;DHT22;1496;51.404;7.232;2023-08-20T15:00:12;26.40;1.00
2973;DHT22;1496;51.404;7.232;2023-08-20T15:02:46;26.40;1.00
2973;DHT22;1496;51.404;7.232;2023-08-20T15:05:18;26.30;1.00
2973;DHT22;1496;51.404;7.232;2023-08-20T15:07:44;26.20;1.00
2973;DHT22;1496;51.404;7.232;2023-08-20T15:10:10;26.20;1.00
2973;DHT22;1496;51.404;7.232;2023-08-20T15:12:36;26.20;1.00
2973;DHT22;1496;51.404;7.232;2023-08-20T15:15:04;26.10;1.00
2973;DHT22;1496;51.404;7.232;2023-08-20T15:17:32;26.10;1.00
2973;DHT22;1496;51.404;7.232;2023-08-20T15:19:59;26.00;1.00
2973;DHT22;1496;51.404;7.232;2023-08-20T15:22:24;26.10;1.00
2973;DHT22;1496;51.404;7.232;2023-08-20T15:24:50;26.10;1.00
2973;DHT22;1496;51.404;7.232;2023-08-20T15:27:19;26.10;1.00
2973;DHT22;1496;51.404;7.232;2023-08-20T15:29:47;26.10;1.00
2973;DHT22;1496;51.404;7.232;2023-08-20T15:32:13;26.10;1.00
2973;DHT22;1496;51.404;7.232;2023-08-20T15:34:38;26.00;1.00
2973;DHT22;1496;51.404;7.232;2023-08-20T15:37:04;25.90;1.00
2973;DHT22;1496;51.404;7.232;2023-08-20T15:39:34;25.90;1.00
2973;DHT22;1496;51.404;7.232;2023-08-20T15:42:02;25.90;1.00
2973;DHT22;1496;51.404;7.232;2023-08-20T15:44:29;25.90;1.00
2973;DHT22;1496;51.404;7.232;2023-08-20T15:46:55;25.80;1.00
2973;DHT22;1496;51.404;7.232;2023-08-20T15:49:21;25.80;1.00
2973;DHT22;1496;51.404;7.232;2023-08-20T15:51:46;25.80;1.00
2973;DHT22;1496;51.404;7.232;2023-08-20T15:54:15;25.80;1.00
2973;DHT22;1496;51.404;7.232;2023-08-20T15:56:41;25.70;1.00
2973;DHT22;1496;51.404;7.232;2023-08-20T15:59:07;25.70;1.00
2973;DHT22;1496;51.404;7.232;2023-08-20T16:01:33;25.60;1.00
2973;DHT22;1496;51.404;7.232;2023-08-20T16:04:00;25.50;1.00
2973;DHT22;1496;51.404;7.232;2023-08-20T16:06:28;25.50;1.00
2973;DHT22;1496;51.404;7.232;2023-08-20T16:08:54;25.40;1.00
2973;DHT22;1496;51.404;7.232;2023-08-20T16:11:20;25.40;1.00
2973;DHT22;1496;51.404;7.232;2023-08-20T16:13:45;25.40;1.00
2973;DHT22;1496;51.404;7.232;2023-08-20T16:16:17;25.40;1.00
2973;DHT22;1496;51.404;7.232;2023-08-20T16:18:44;25.40;1.00
2973;DHT22;1496;51.404;7.232;2023-08-20T16:21:09;25.30;1.00
2973;DHT22;1496;51.404;7.232;2023-08-20T16:23:35;25.30;1.00
2973;DHT22;1496;51.404;7.232;2023-08-20T16:26:01;25.30;1.00
2973;DHT22;1496;51.404;7.232;2023-08-20T16:28:28;25.30;1.00
2973;DHT22;1496;51.404;7.232;2023-08-20T16:30:54;25.20;1.00